createdAt,value
2023-12-18T00:00:01.039Z,84.66
2023-12-18T00:02:27.512Z,85.19
2023-12-18T00:04:53.983Z,85.12
2023-12-18T00:07:20.416Z,84.96
2023-12-18T00:09:46.830Z,85.18
2023-12-18T00:12:13.347Z,85.19
2023-12-18T00:14:39.844Z,84.90
2023-12-18T00:17:06.214Z,85.00
2023-12-18T00:19:32.752Z,84.83
2023-12-18T00:21:59.298Z,84.42
2023-12-18T00:24:25.779Z,84.40
2023-12-18T00:26:52.188Z,84.45
2023-12-18T00:29:18.588Z,84.14
2023-12-18T00:31:44.943Z,84.69
2023-12-18T00:34:11.493Z,85.04
2023-12-18T00:36:38.036Z,84.88
2023-12-18T00:39:04.568Z,84.93
2023-12-18T00:41:31.004Z,85.36
2023-12-18T00:43:57.410Z,85.43
2023-12-18T00:46:23.800Z,85.36
2023-12-18T00:48:50.314Z,85.61
2023-12-18T00:51:16.801Z,85.38
2023-12-18T00:53:43.333Z,85.46
2023-12-18T00:56:09.774Z,85.32
2023-12-18T00:58:36.189Z,85.32
2023-12-18T01:01:02.722Z,85.43
2023-12-18T01:03:29.486Z,85.14
2023-12-18T01:05:55.877Z,85.20
2023-12-18T01:08:22.259Z,84.91
2023-12-18T01:10:48.974Z,84.90
2023-12-18T01:13:15.387Z,85.24
2023-12-18T01:15:41.813Z,85.15
2023-12-18T01:18:08.457Z,85.04
2023-12-18T01:20:35.385Z,85.11
2023-12-18T01:23:04.702Z,85.16
2023-12-18T01:25:32.054Z,85.16
2023-12-18T01:27:58.521Z,85.19
2023-12-18T01:30:24.982Z,85.16
2023-12-18T01:32:51.515Z,85.13
2023-12-18T01:35:17.997Z,85.02
2023-12-18T01:37:44.561Z,85.13
2023-12-18T01:40:11.396Z,84.98
2023-12-18T01:42:38.474Z,85.07
2023-12-18T01:45:05.057Z,85.13
2023-12-18T01:47:31.547Z,85.39
2023-12-18T01:49:58.394Z,85.35
2023-12-18T01:52:25.010Z,85.58
2023-12-18T01:54:51.890Z,85.39
2023-12-18T01:57:18.886Z,85.41
2023-12-18T01:59:45.365Z,85.65
2023-12-18T02:02:11.751Z,85.82
2023-12-18T02:04:38.336Z,85.74
2023-12-18T02:07:06.277Z,85.60
2023-12-18T02:09:32.937Z,85.91
2023-12-18T02:11:59.345Z,85.84
2023-12-18T02:14:26.114Z,85.93
2023-12-18T02:16:52.544Z,85.95
2023-12-18T02:19:25.782Z,85.80
2023-12-18T02:21:52.624Z,85.74
2023-12-18T02:24:19.685Z,85.65
2023-12-18T02:26:46.938Z,85.69
2023-12-18T02:29:13.392Z,85.89
2023-12-18T02:31:40.045Z,85.95
2023-12-18T02:34:06.654Z,85.96
2023-12-18T02:36:33.226Z,86.08
2023-12-18T02:38:59.593Z,86.18
2023-12-18T02:41:26.133Z,86.28
2023-12-18T02:43:52.511Z,86.02
2023-12-18T02:46:18.904Z,85.86
2023-12-18T02:48:45.422Z,85.99
2023-12-18T02:51:11.950Z,86.00
2023-12-18T02:53:38.616Z,85.96
2023-12-18T02:56:05.217Z,86.18
2023-12-18T02:58:31.601Z,86.16
2023-12-18T03:00:58.027Z,86.03
2023-12-18T03:03:24.551Z,86.28
2023-12-18T03:05:51.044Z,86.03
2023-12-18T03:08:17.479Z,85.90
2023-12-18T03:10:43.986Z,85.92
2023-12-18T03:13:10.361Z,85.70
2023-12-18T03:15:36.856Z,85.41
2023-12-18T03:18:03.461Z,85.45
2023-12-18T03:20:29.873Z,85.64
2023-12-18T03:22:56.283Z,85.48
2023-12-18T03:25:22.651Z,85.35
2023-12-18T03:27:49.146Z,85.44
2023-12-18T03:30:15.782Z,85.28
2023-12-18T03:32:42.620Z,85.50
2023-12-18T03:35:09.372Z,85.30
2023-12-18T03:37:35.797Z,85.46
2023-12-18T03:40:02.561Z,85.31
2023-12-18T03:42:29.025Z,85.56
2023-12-18T03:44:55.435Z,85.35
2023-12-18T03:47:21.806Z,85.68
2023-12-18T03:49:48.259Z,85.65
2023-12-18T03:52:14.786Z,85.42
2023-12-18T03:54:41.218Z,85.42
2023-12-18T03:57:07.628Z,85.42
2023-12-18T03:59:34.150Z,85.29
2023-12-18T04:02:00.632Z,85.24
2023-12-18T04:04:27.103Z,85.35
2023-12-18T04:06:53.699Z,85.25
2023-12-18T04:09:20.161Z,85.25
2023-12-18T04:11:46.596Z,84.94
2023-12-18T04:14:12.965Z,85.02
2023-12-18T04:16:39.404Z,84.98
2023-12-18T04:19:06.305Z,84.92
2023-12-18T04:21:32.987Z,85.08
2023-12-18T04:23:59.480Z,85.00
2023-12-18T04:26:25.869Z,84.75
2023-12-18T04:28:52.384Z,84.75
2023-12-18T04:31:20.063Z,84.84
2023-12-18T04:33:46.891Z,84.93
2023-12-18T04:36:13.370Z,85.14
2023-12-18T04:38:41.026Z,85.03
2023-12-18T04:41:07.445Z,85.03
2023-12-18T04:43:34.325Z,84.94
2023-12-18T04:46:01.380Z,85.07
2023-12-18T04:48:27.868Z,85.01
2023-12-18T04:50:54.454Z,85.17
2023-12-18T04:53:20.922Z,84.98
2023-12-18T04:55:47.284Z,84.92
2023-12-18T04:58:13.692Z,84.97
2023-12-18T05:00:40.243Z,85.09
2023-12-18T05:03:06.889Z,84.86
2023-12-18T05:05:33.373Z,84.82
2023-12-18T05:07:59.803Z,84.72
2023-12-18T05:10:26.169Z,85.09
2023-12-18T05:12:52.593Z,84.95
2023-12-18T05:15:19.143Z,84.72
2023-12-18T05:17:45.773Z,84.61
2023-12-18T05:20:13.724Z,84.60
2023-12-18T05:22:40.498Z,84.79
2023-12-18T05:25:09.314Z,84.69
2023-12-18T05:27:35.719Z,84.43
2023-12-18T05:30:02.230Z,84.41
2023-12-18T05:32:28.896Z,84.32
2023-12-18T05:34:55.344Z,84.44
2023-12-18T05:37:22.409Z,84.25
2023-12-18T05:39:48.851Z,84.30
2023-12-18T05:42:20.516Z,84.24
2023-12-18T05:44:46.982Z,84.26
2023-12-18T05:47:13.449Z,84.15
2023-12-18T05:49:39.957Z,84.32
2023-12-18T05:52:06.923Z,84.59
2023-12-18T05:54:33.380Z,88.36
2023-12-18T05:56:59.795Z,88.87
2023-12-18T05:59:26.191Z,84.79
2023-12-18T06:01:52.654Z,80.61
2023-12-18T06:04:19.274Z,78.74
2023-12-18T06:06:45.812Z,79.36
2023-12-18T06:09:12.293Z,80.80
2023-12-18T06:11:38.731Z,80.98
2023-12-18T06:14:05.140Z,81.48
2023-12-18T06:16:31.551Z,81.96
2023-12-18T06:19:00.710Z,81.66
2023-12-18T06:21:27.857Z,81.97
2023-12-18T06:23:54.270Z,81.84
2023-12-18T06:26:20.678Z,82.16
2023-12-18T06:28:47.028Z,82.17
2023-12-18T06:31:13.551Z,82.42
2023-12-18T06:33:40.182Z,82.52
2023-12-18T06:36:06.852Z,82.73
2023-12-18T06:38:33.318Z,82.71
2023-12-18T06:40:59.698Z,82.86
2023-12-18T06:43:26.442Z,82.89
2023-12-18T06:45:52.900Z,82.98
2023-12-18T06:48:19.417Z,83.12
2023-12-18T06:50:45.865Z,83.04
2023-12-18T06:53:12.236Z,83.04
2023-12-18T06:55:39.919Z,82.65
2023-12-18T06:58:06.365Z,82.38
2023-12-18T07:00:40.022Z,82.12
2023-12-18T07:03:08.040Z,82.35
2023-12-18T07:05:34.816Z,82.27
2023-12-18T07:08:01.381Z,82.40
2023-12-18T07:10:27.908Z,82.79
2023-12-18T07:12:54.353Z,82.64
2023-12-18T07:15:24.950Z,83.18
2023-12-18T07:17:51.442Z,82.88
2023-12-18T07:20:18.053Z,83.11
2023-12-18T07:22:44.924Z,83.23
2023-12-18T07:25:11.487Z,83.06
2023-12-18T07:27:38.231Z,83.29
2023-12-18T07:30:05.126Z,83.09
2023-12-18T07:32:34.718Z,82.86
2023-12-18T07:35:02.180Z,82.61
2023-12-18T07:37:29.297Z,82.56
2023-12-18T07:39:58.698Z,82.43
2023-12-18T07:42:25.786Z,82.62
2023-12-18T07:44:52.582Z,82.54
2023-12-18T07:47:18.981Z,82.73
2023-12-18T07:49:49.317Z,82.88
2023-12-18T07:52:17.860Z,82.58
2023-12-18T07:54:44.382Z,82.50
2023-12-18T07:57:10.854Z,82.57
2023-12-18T07:59:40.622Z,82.58
2023-12-18T08:02:08.183Z,82.91
2023-12-18T08:04:34.596Z,82.60
2023-12-18T08:07:00.977Z,82.55
2023-12-18T08:09:27.964Z,82.96
2023-12-18T08:11:54.707Z,82.81
2023-12-18T08:14:21.081Z,82.63
2023-12-18T08:21:14.627Z,82.65
2023-12-18T08:23:45.108Z,81.78
2023-12-18T08:26:12.159Z,81.84
2023-12-18T08:28:42.698Z,81.36
2023-12-18T08:31:09.460Z,80.79
2023-12-18T08:33:36.124Z,81.08
2023-12-18T08:36:02.765Z,80.32
2023-12-18T08:38:29.981Z,79.30
2023-12-18T08:40:56.465Z,78.95
2023-12-18T08:43:23.043Z,80.17
2023-12-18T08:45:49.774Z,80.61
2023-12-18T08:48:17.148Z,80.44
2023-12-18T08:50:44.573Z,80.57
2023-12-18T08:53:11.022Z,80.80
2023-12-18T08:55:40.242Z,80.77
2023-12-18T08:58:08.629Z,80.85
2023-12-18T09:00:35.463Z,80.26
2023-12-18T09:03:02.627Z,79.31
2023-12-18T09:05:30.469Z,78.32
2023-12-18T09:07:57.026Z,77.63
2023-12-18T09:10:24.115Z,77.27
2023-12-18T09:12:53.972Z,77.01
2023-12-18T09:15:20.865Z,76.62
2023-12-18T09:17:47.502Z,75.87
2023-12-18T09:20:14.137Z,75.49
2023-12-18T09:22:40.899Z,75.23
2023-12-18T09:25:07.988Z,75.38
2023-12-18T09:27:34.566Z,75.17
2023-12-18T09:30:01.152Z,75.23
2023-12-18T09:32:27.850Z,75.32
2023-12-18T09:34:54.921Z,75.15
2023-12-18T09:37:21.531Z,74.91
2023-12-18T09:39:48.125Z,74.99
2023-12-18T09:42:17.684Z,74.94
2023-12-18T09:44:48.096Z,74.75
2023-12-18T09:47:15.159Z,73.87
2023-12-18T09:49:41.962Z,74.05
2023-12-18T09:52:11.145Z,74.20
2023-12-18T09:54:38.827Z,74.09
2023-12-18T09:57:08.588Z,73.92
2023-12-18T09:59:35.152Z,73.72
2023-12-18T10:02:01.997Z,73.06
2023-12-18T10:04:28.516Z,74.10
2023-12-18T10:06:55.348Z,74.43
2023-12-18T10:09:22.504Z,74.53
2023-12-18T10:11:53.051Z,74.09
2023-12-18T10:14:20.636Z,74.50
2023-12-18T10:16:47.198Z,74.17
2023-12-18T10:19:13.940Z,74.49
2023-12-18T10:21:40.841Z,74.79
2023-12-18T10:24:10.270Z,74.63
2023-12-18T10:26:36.898Z,74.31
2023-12-18T10:29:03.482Z,74.48
2023-12-18T10:31:30.335Z,74.20
2023-12-18T10:33:58.527Z,74.03
2023-12-18T10:36:25.940Z,74.45
2023-12-18T10:38:52.501Z,74.67
2023-12-18T10:41:24.048Z,74.36
2023-12-18T10:43:51.312Z,74.23
2023-12-18T10:46:18.191Z,74.24
2023-12-18T10:48:49.306Z,74.14
2023-12-18T10:51:23.531Z,73.12
2023-12-18T10:53:51.574Z,73.39
2023-12-18T10:56:22.409Z,73.72
2023-12-18T10:58:51.598Z,73.72
2023-12-18T11:01:18.792Z,73.78
2023-12-18T11:03:46.326Z,74.59
2023-12-18T11:06:13.464Z,74.91
2023-12-18T11:08:40.205Z,74.89
2023-12-18T11:11:07.537Z,75.23
2023-12-18T11:14:11.226Z,74.88
2023-12-18T11:17:19.335Z,74.69
2023-12-18T11:19:58.863Z,73.93
2023-12-18T11:22:43.833Z,73.80
2023-12-18T11:25:10.872Z,73.53
2023-12-18T11:27:38.443Z,73.86
2023-12-18T11:30:05.835Z,73.77
2023-12-18T11:32:45.022Z,73.22
2023-12-18T11:35:15.905Z,74.21
2023-12-18T11:37:46.612Z,73.11
2023-12-18T11:40:37.545Z,71.80
2023-12-18T11:43:05.441Z,72.26
2023-12-18T11:45:32.497Z,72.42
2023-12-18T11:48:03.934Z,72.95
2023-12-18T11:50:37.456Z,72.61
2023-12-18T11:53:08.552Z,72.25
2023-12-18T11:55:45.440Z,72.43
2023-12-18T11:58:13.323Z,72.90
2023-12-18T12:00:41.045Z,71.83
2023-12-18T12:03:07.879Z,72.33
2023-12-18T12:05:36.306Z,72.18
2023-12-18T12:08:03.044Z,72.67
2023-12-18T12:10:29.554Z,72.80
2023-12-18T12:12:57.733Z,73.32
2023-12-18T12:15:25.629Z,72.95
2023-12-18T12:18:01.143Z,72.22
2023-12-18T12:20:27.680Z,72.14
2023-12-18T12:22:54.188Z,72.73
2023-12-18T12:25:20.758Z,72.79
2023-12-18T12:27:47.287Z,72.50
2023-12-18T12:30:14.448Z,72.72
2023-12-18T12:32:41.395Z,73.53
2023-12-18T12:35:08.781Z,72.22
2023-12-18T12:37:35.336Z,72.52
2023-12-18T12:40:07.173Z,72.59
2023-12-18T12:42:36.076Z,72.68
2023-12-18T12:45:03.105Z,72.79
2023-12-18T12:47:30.576Z,73.28
2023-12-18T12:50:04.214Z,72.55
2023-12-18T12:52:30.886Z,72.96
2023-12-18T12:54:57.360Z,73.50
2023-12-18T12:57:24.016Z,73.48
2023-12-18T12:59:54.246Z,73.47
2023-12-18T13:02:25.178Z,73.39
2023-12-18T13:04:52.149Z,73.15
2023-12-18T13:07:21.390Z,72.92
2023-12-18T13:09:48.618Z,73.34
2023-12-18T13:12:18.489Z,73.84
2023-12-18T13:14:46.171Z,74.46
2023-12-18T13:17:13.720Z,74.66
2023-12-18T13:19:40.891Z,75.15
2023-12-18T13:22:08.008Z,75.37
2023-12-18T13:24:35.077Z,76.09
2023-12-18T13:27:02.387Z,76.11
2023-12-18T13:29:34.315Z,76.17
2023-12-18T13:32:02.541Z,75.51
2023-12-18T13:34:29.811Z,75.88
2023-12-18T13:36:56.992Z,76.10
2023-12-18T13:39:24.277Z,76.57
2023-12-18T13:41:56.126Z,76.27
2023-12-18T13:44:23.778Z,76.34
2023-12-18T13:46:51.329Z,76.45
2023-12-18T13:49:18.418Z,76.51
2023-12-18T13:51:45.318Z,75.78
2023-12-18T13:54:12.052Z,75.97
2023-12-18T13:56:38.798Z,76.15
2023-12-18T13:59:06.780Z,76.47
2023-12-18T14:01:33.482Z,76.13
2023-12-18T14:04:00.128Z,76.59
2023-12-18T14:06:27.266Z,77.00
2023-12-18T14:08:53.809Z,76.50
2023-12-18T14:11:20.282Z,76.45
2023-12-18T14:13:47.863Z,75.86
2023-12-18T14:16:14.573Z,75.54
2023-12-18T14:18:41.966Z,76.12
2023-12-18T14:21:08.656Z,76.27
2023-12-18T14:23:35.157Z,76.18
2023-12-18T14:26:01.893Z,76.75
2023-12-18T14:28:28.564Z,76.26
2023-12-18T14:30:55.292Z,76.61
2023-12-18T14:33:21.989Z,76.09
2023-12-18T14:35:50.448Z,76.09
2023-12-18T14:38:18.675Z,76.18
2023-12-18T14:40:48.359Z,76.58
2023-12-18T14:43:14.941Z,76.86
2023-12-18T14:45:41.508Z,76.40
2023-12-18T14:48:08.107Z,76.20
2023-12-18T14:50:35.044Z,76.68
2023-12-18T14:53:03.394Z,76.58
2023-12-18T14:55:31.561Z,76.65
2023-12-18T14:58:03.322Z,76.92
2023-12-18T15:00:30.369Z,77.58
2023-12-18T15:02:57.115Z,77.77
2023-12-18T15:05:24.520Z,76.75
2023-12-18T15:07:51.827Z,77.19
2023-12-18T15:10:19.336Z,77.41
2023-12-18T15:12:47.767Z,77.86
2023-12-18T15:15:14.578Z,77.73
2023-12-18T15:17:41.228Z,78.28
2023-12-18T15:20:09.806Z,78.04
2023-12-18T15:22:37.301Z,78.15
2023-12-18T15:25:05.388Z,77.53
2023-12-18T15:27:32.099Z,77.77
2023-12-18T15:29:58.902Z,77.76
2023-12-18T15:32:25.811Z,77.31
2023-12-18T15:34:52.668Z,77.43
2023-12-18T15:37:19.382Z,77.99
2023-12-18T15:39:47.012Z,78.57
2023-12-18T15:42:13.759Z,78.61
2023-12-18T15:44:40.850Z,79.21
2023-12-18T15:47:08.665Z,79.75
2023-12-18T15:49:35.358Z,79.04
2023-12-18T15:52:02.319Z,78.35
2023-12-18T15:54:28.944Z,79.20
2023-12-18T15:56:55.937Z,79.65
2023-12-18T15:59:23.027Z,79.54
2023-12-18T16:01:49.736Z,80.02
2023-12-18T16:04:16.380Z,80.12
2023-12-18T16:06:43.440Z,79.88
2023-12-18T16:09:13.403Z,79.92
2023-12-18T16:11:40.948Z,79.96
2023-12-18T16:14:07.626Z,80.95
2023-12-18T16:16:34.182Z,80.35
2023-12-18T16:19:00.914Z,79.81
2023-12-18T16:21:29.441Z,79.46
2023-12-18T16:23:56.054Z,80.21
2023-12-18T16:26:22.722Z,80.11
2023-12-18T16:28:50.677Z,79.14
2023-12-18T16:31:17.326Z,79.42
2023-12-18T16:33:44.130Z,79.85
2023-12-18T16:36:18.003Z,80.00
2023-12-18T16:38:49.275Z,79.36
2023-12-18T16:41:17.757Z,78.94
2023-12-18T16:43:44.991Z,79.05
2023-12-18T16:46:11.666Z,79.11
2023-12-18T16:48:38.740Z,78.86
2023-12-18T16:51:06.208Z,78.99
2023-12-18T16:53:32.775Z,79.50
2023-12-18T16:55:59.559Z,80.34
2023-12-18T16:58:26.186Z,81.04
2023-12-18T17:00:52.777Z,81.56
2023-12-18T17:03:22.518Z,80.65
2023-12-18T17:05:50.628Z,79.89
2023-12-18T17:08:17.710Z,79.48
2023-12-18T17:10:45.130Z,79.56
2023-12-18T17:13:13.833Z,79.66
2023-12-18T17:15:42.444Z,79.91
2023-12-18T17:18:10.371Z,79.39
2023-12-18T17:20:37.499Z,79.86
2023-12-18T17:23:04.563Z,79.55
2023-12-18T17:25:31.778Z,79.89
2023-12-18T17:27:58.691Z,80.14
2023-12-18T17:30:26.098Z,81.06
2023-12-18T17:32:52.687Z,81.60
2023-12-18T17:35:19.336Z,81.71
2023-12-18T17:37:45.850Z,81.14
2023-12-18T17:40:12.732Z,81.02
2023-12-18T17:42:39.520Z,80.62
2023-12-18T17:45:07.947Z,80.58
2023-12-18T17:47:34.516Z,80.69
2023-12-18T17:50:01.688Z,80.56
2023-12-18T17:52:28.557Z,80.61
2023-12-18T17:54:55.241Z,80.41
2023-12-18T17:57:21.974Z,80.58
2023-12-18T17:59:48.835Z,80.63
2023-12-18T18:02:16.220Z,79.83
2023-12-18T18:04:46.182Z,78.99
2023-12-18T18:07:13.305Z,79.32
2023-12-18T18:09:43.034Z,79.33
2023-12-18T18:12:10.244Z,78.78
2023-12-18T18:14:36.967Z,79.22
2023-12-18T18:17:03.788Z,78.99
2023-12-18T18:19:30.385Z,78.87
2023-12-18T18:21:57.050Z,78.61
2023-12-18T18:24:23.955Z,78.58
2023-12-18T18:26:51.646Z,78.47
2023-12-18T18:29:34.940Z,78.05
2023-12-18T18:32:01.957Z,78.76
2023-12-18T18:34:28.611Z,78.02
2023-12-18T18:36:55.308Z,77.77
2023-12-18T18:39:21.968Z,78.10
2023-12-18T18:41:49.084Z,78.44
2023-12-18T18:44:15.928Z,77.90
2023-12-18T18:46:42.580Z,77.88
2023-12-18T18:49:10.943Z,78.75
2023-12-18T18:51:37.492Z,78.80
2023-12-18T18:54:04.407Z,78.69
2023-12-18T18:56:31.785Z,78.23
2023-12-18T18:58:58.415Z,77.73
2023-12-18T19:01:25.115Z,78.14
2023-12-18T19:03:52.039Z,77.88
2023-12-18T19:06:18.756Z,78.32
2023-12-18T19:08:45.326Z,78.56
2023-12-18T19:11:11.978Z,78.23
2023-12-18T19:13:38.854Z,78.16
2023-12-18T19:16:05.763Z,78.11
2023-12-18T19:18:32.484Z,78.06
2023-12-18T19:20:59.078Z,78.30
2023-12-18T19:23:25.613Z,77.92
2023-12-18T19:25:52.172Z,77.90
2023-12-18T19:28:18.802Z,78.75
2023-12-18T19:30:45.717Z,78.33
2023-12-18T19:33:12.688Z,78.91
2023-12-18T19:35:42.613Z,79.28
2023-12-18T19:38:09.321Z,79.15
2023-12-18T19:40:35.936Z,78.86
2023-12-18T19:43:05.059Z,78.86
2023-12-18T19:45:31.715Z,77.97
2023-12-18T19:47:58.241Z,78.09
2023-12-18T19:50:25.313Z,78.08
2023-12-18T19:52:52.062Z,78.26
2023-12-18T19:55:18.556Z,78.49
2023-12-18T19:57:46.443Z,78.48
2023-12-18T20:00:15.272Z,78.48
2023-12-18T20:02:44.960Z,77.69
2023-12-18T20:05:11.992Z,77.81
2023-12-18T20:07:38.698Z,76.70
2023-12-18T20:10:06.904Z,76.37
2023-12-18T20:12:33.585Z,76.87
2023-12-18T20:15:00.425Z,76.48
2023-12-18T20:17:27.101Z,76.06
2023-12-18T20:19:57.621Z,75.90
2023-12-18T20:22:24.765Z,76.27
2023-12-18T20:24:51.497Z,75.89
2023-12-18T20:27:18.595Z,75.91
2023-12-18T20:29:45.714Z,75.50
2023-12-18T20:32:12.479Z,75.71
2023-12-18T20:34:39.226Z,76.47
2023-12-18T20:37:06.111Z,77.21
2023-12-18T20:39:32.827Z,76.81
2023-12-18T20:41:59.494Z,77.43
2023-12-18T20:44:26.034Z,77.40
2023-12-18T20:46:52.540Z,77.24
2023-12-18T20:49:19.289Z,77.22
2023-12-18T20:51:46.382Z,77.52
2023-12-18T20:54:12.888Z,78.17
2023-12-18T20:56:39.463Z,77.98
2023-12-18T20:59:06.821Z,78.18
2023-12-18T21:01:33.839Z,78.20
2023-12-18T21:04:00.750Z,77.81
2023-12-18T21:06:28.665Z,77.76
2023-12-18T21:08:55.436Z,78.13
2023-12-18T21:11:22.153Z,77.98
2023-12-18T21:13:48.792Z,77.60
2023-12-18T21:16:15.722Z,77.31
2023-12-18T21:18:42.891Z,76.96
2023-12-18T21:21:09.679Z,76.83
2023-12-18T21:23:36.574Z,76.76
2023-12-18T21:26:05.000Z,76.65
2023-12-18T21:28:31.678Z,76.42
2023-12-18T21:30:58.389Z,76.61
2023-12-18T21:33:25.128Z,77.25
2023-12-18T21:35:52.471Z,76.60
2023-12-18T21:38:19.213Z,77.18
2023-12-18T21:40:46.251Z,77.29
2023-12-18T21:43:12.873Z,76.72
2023-12-18T21:45:39.656Z,77.14
2023-12-18T21:48:06.970Z,76.38
2023-12-18T21:50:40.024Z,76.45
2023-12-18T21:53:07.686Z,76.84
2023-12-18T21:55:34.278Z,76.83
2023-12-18T21:58:01.302Z,77.13
2023-12-18T22:00:29.819Z,77.35
2023-12-18T22:02:58.278Z,77.39
2023-12-18T22:05:24.945Z,77.34
2023-12-18T22:07:51.799Z,77.62
2023-12-18T22:10:18.667Z,76.99
2023-12-18T22:12:45.612Z,76.67
2023-12-18T22:15:13.428Z,77.20
2023-12-18T22:17:40.145Z,76.93
2023-12-18T22:20:09.970Z,76.51
2023-12-18T22:22:38.153Z,76.40
2023-12-18T22:25:05.235Z,76.64
2023-12-18T22:27:31.798Z,76.97
2023-12-18T22:29:58.354Z,77.24
2023-12-18T22:32:24.992Z,77.03
2023-12-18T22:34:51.765Z,76.24
2023-12-18T22:37:18.372Z,75.52
2023-12-18T22:39:45.199Z,75.74
2023-12-18T22:42:11.841Z,76.02
2023-12-18T22:44:38.929Z,76.09
2023-12-18T22:47:05.556Z,75.92
2023-12-18T22:49:32.196Z,75.54
2023-12-18T22:51:58.804Z,75.95
2023-12-18T22:54:25.482Z,76.26
2023-12-18T22:56:52.007Z,76.09
2023-12-18T22:59:18.505Z,76.43
2023-12-18T23:01:45.803Z,76.37
2023-12-18T23:04:12.409Z,76.12
2023-12-18T23:06:38.992Z,75.70
2023-12-18T23:09:05.568Z,76.17
2023-12-18T23:11:32.131Z,76.27
2023-12-18T23:13:58.618Z,76.16
2023-12-18T23:16:25.149Z,76.93
2023-12-18T23:18:51.857Z,76.35
2023-12-18T23:21:18.489Z,77.06
2023-12-18T23:23:45.034Z,76.58
2023-12-18T23:26:11.543Z,76.40
2023-12-18T23:28:38.095Z,75.93
2023-12-18T23:31:05.040Z,75.68
2023-12-18T23:33:32.410Z,75.72
2023-12-18T23:35:59.717Z,75.91
2023-12-18T23:38:26.859Z,76.17
2023-12-18T23:40:54.326Z,76.27
2023-12-18T23:43:21.009Z,76.50
2023-12-18T23:45:47.682Z,76.36
2023-12-18T23:48:14.302Z,76.70
2023-12-18T23:50:41.205Z,76.42
2023-12-18T23:53:10.574Z,76.17
2023-12-18T23:55:37.070Z,76.29
2023-12-18T23:58:03.908Z,75.94
